sensor_id;sensor_type;location;lat;lon;timestamp;P1;durP1;ratioP1;P2;durP2;ratioP2
20468;SDS011;10393;52.460;13.322;2022-08-03T00:00:13;6.78;;;2.05;;
20468;SDS011;10393;52.460;13.322;2022-08-03T00:01:54;2.58;;;2.10;;
20468;SDS011;10393;52.460;13.322;2022-08-03T00:03:35;2.95;;;1.77;;
20468;SDS011;10393;52.460;13.322;2022-08-03T00:05:16;3.63;;;2.00;;
20468;SDS011;10393;52.460;13.322;2022-08-03T00:06:57;3.15;;;2.13;;
20468;SDS011;10393;52.460;13.322;2022-08-03T00:08:38;3.53;;;1.92;;
20468;SDS011;10393;52.460;13.322;2022-08-03T00:10:18;3.72;;;1.90;;
20468;SDS011;10393;52.460;13.322;2022-08-03T00:11:59;1.88;;;1.77;;
20468;SDS011;10393;52.460;13.322;2022-08-03T00:13:40;2.25;;;2.00;;
20468;SDS011;10393;52.460;13.322;2022-08-03T00:15:21;4.20;;;1.90;;
20468;SDS011;10393;52.460;13.322;2022-08-03T00:17:02;6.40;;;2.47;;
20468;SDS011;10393;52.460;13.322;2022-08-03T00:18:43;4.30;;;1.58;;
20468;SDS011;10393;52.460;13.322;2022-08-03T00:20:24;3.65;;;2.50;;
20468;SDS011;10393;52.460;13.322;2022-08-03T00:22:05;10.90;;;2.28;;
20468;SDS011;10393;52.460;13.322;2022-08-03T00:23:45;4.35;;;1.88;;
20468;SDS011;10393;52.460;13.322;2022-08-03T00:25:26;3.33;;;2.17;;
20468;SDS011;10393;52.460;13.322;2022-08-03T00:27:07;3.75;;;2.08;;
20468;SDS011;10393;52.460;13.322;2022-08-03T00:28:48;5.70;;;2.38;;
20468;SDS011;10393;52.460;13.322;2022-08-03T00:30:29;7.13;;;2.20;;
20468;SDS011;10393;52.460;13.322;2022-08-03T00:32:10;4.45;;;2.38;;
20468;SDS011;10393;52.460;13.322;2022-08-03T00:33:51;4.15;;;2.25;;
20468;SDS011;10393;52.460;13.322;2022-08-03T00:35:32;5.63;;;2.20;;
20468;SDS011;10393;52.460;13.322;2022-08-03T00:37:12;8.18;;;2.25;;
20468;SDS011;10393;52.460;13.322;2022-08-03T00:38:53;2.38;;;2.17;;
20468;SDS011;10393;52.460;13.322;2022-08-03T00:40:35;3.63;;;1.83;;
20468;SDS011;10393;52.460;13.322;2022-08-03T00:42:15;2.92;;;1.88;;
20468;SDS011;10393;52.460;13.322;2022-08-03T00:43:56;5.28;;;2.03;;
20468;SDS011;10393;52.460;13.322;2022-08-03T00:45:38;5.82;;;1.70;;
20468;SDS011;10393;52.460;13.322;2022-08-03T00:47:20;2.10;;;1.83;;
20468;SDS011;10393;52.460;13.322;2022-08-03T00:49:01;5.10;;;2.28;;
20468;SDS011;10393;52.460;13.322;2022-08-03T00:50:42;1.67;;;1.58;;
20468;SDS011;10393;52.460;13.322;2022-08-03T00:52:23;3.05;;;1.75;;
20468;SDS011;10393;52.460;13.322;2022-08-03T00:54:03;3.42;;;2.00;;
20468;SDS011;10393;52.460;13.322;2022-08-03T00:55:44;3.42;;;1.80;;
20468;SDS011;10393;52.460;13.322;2022-08-03T00:57:25;3.50;;;1.75;;
20468;SDS011;10393;52.460;13.322;2022-08-03T00:59:08;2.53;;;1.40;;
20468;SDS011;10393;52.460;13.322;2022-08-03T01:00:49;2.20;;;1.70;;
20468;SDS011;10393;52.460;13.322;2022-08-03T01:02:30;6.22;;;2.03;;
20468;SDS011;10393;52.460;13.322;2022-08-03T01:04:12;5.57;;;2.00;;
20468;SDS011;10393;52.460;13.322;2022-08-03T01:12:01;3.03;;;1.50;;
20468;SDS011;10393;52.460;13.322;2022-08-03T01:16:00;5.70;;;2.00;;
20468;SDS011;10393;52.460;13.322;2022-08-03T01:17:51;2.03;;;1.33;;
20468;SDS011;10393;52.460;13.322;2022-08-03T01:22:15;7.18;;;1.67;;
20468;SDS011;10393;52.460;13.322;2022-08-03T01:25:54;3.10;;;1.88;;
20468;SDS011;10393;52.460;13.322;2022-08-03T01:28:10;2.97;;;1.90;;
20468;SDS011;10393;52.460;13.322;2022-08-03T01:30:09;2.38;;;1.95;;
20468;SDS011;10393;52.460;13.322;2022-08-03T01:31:52;4.43;;;2.00;;
20468;SDS011;10393;52.460;13.322;2022-08-03T01:33:39;7.10;;;1.83;;
20468;SDS011;10393;52.460;13.322;2022-08-03T01:35:42;4.05;;;1.75;;
20468;SDS011;10393;52.460;13.322;2022-08-03T01:37:26;5.38;;;1.73;;
20468;SDS011;10393;52.460;13.322;2022-08-03T01:39:14;3.92;;;1.92;;
20468;SDS011;10393;52.460;13.322;2022-08-03T01:40:55;2.35;;;1.83;;
20468;SDS011;10393;52.460;13.322;2022-08-03T01:42:36;3.17;;;1.50;;
20468;SDS011;10393;52.460;13.322;2022-08-03T01:44:19;1.60;;;1.50;;
20468;SDS011;10393;52.460;13.322;2022-08-03T01:46:02;4.68;;;1.80;;
20468;SDS011;10393;52.460;13.322;2022-08-03T01:47:44;2.75;;;1.77;;
20468;SDS011;10393;52.460;13.322;2022-08-03T01:49:26;4.78;;;1.85;;
20468;SDS011;10393;52.460;13.322;2022-08-03T01:51:09;2.47;;;1.90;;
20468;SDS011;10393;52.460;13.322;2022-08-03T01:52:50;4.30;;;1.73;;
20468;SDS011;10393;52.460;13.322;2022-08-03T01:54:35;7.82;;;2.03;;
20468;SDS011;10393;52.460;13.322;2022-08-03T01:56:21;4.45;;;1.60;;
20468;SDS011;10393;52.460;13.322;2022-08-03T01:58:02;2.90;;;1.83;;
20468;SDS011;10393;52.460;13.322;2022-08-03T01:59:45;4.80;;;1.80;;
20468;SDS011;10393;52.460;13.322;2022-08-03T02:01:27;3.67;;;1.67;;
20468;SDS011;10393;52.460;13.322;2022-08-03T02:03:08;1.70;;;1.60;;
20468;SDS011;10393;52.460;13.322;2022-08-03T02:04:52;3.03;;;1.63;;
20468;SDS011;10393;52.460;13.322;2022-08-03T02:06:34;4.63;;;1.60;;
20468;SDS011;10393;52.460;13.322;2022-08-03T02:08:15;4.35;;;1.90;;
20468;SDS011;10393;52.460;13.322;2022-08-03T02:09:56;1.63;;;1.52;;
20468;SDS011;10393;52.460;13.322;2022-08-03T02:11:38;5.32;;;1.73;;
20468;SDS011;10393;52.460;13.322;2022-08-03T02:13:19;3.17;;;1.80;;
20468;SDS011;10393;52.460;13.322;2022-08-03T02:15:01;4.03;;;1.67;;
20468;SDS011;10393;52.460;13.322;2022-08-03T02:16:42;2.92;;;1.90;;
20468;SDS011;10393;52.460;13.322;2022-08-03T02:18:24;4.50;;;1.98;;
20468;SDS011;10393;52.460;13.322;2022-08-03T02:20:08;4.30;;;1.77;;
20468;SDS011;10393;52.460;13.322;2022-08-03T02:21:51;1.73;;;1.63;;
20468;SDS011;10393;52.460;13.322;2022-08-03T02:23:32;1.90;;;1.80;;
20468;SDS011;10393;52.460;13.322;2022-08-03T02:25:14;2.22;;;1.85;;
20468;SDS011;10393;52.460;13.322;2022-08-03T02:26:55;2.30;;;1.90;;
20468;SDS011;10393;52.460;13.322;2022-08-03T02:28:37;5.80;;;2.20;;
20468;SDS011;10393;52.460;13.322;2022-08-03T02:30:20;9.93;;;1.98;;
20468;SDS011;10393;52.460;13.322;2022-08-03T02:32:01;4.72;;;1.80;;
20468;SDS011;10393;52.460;13.322;2022-08-03T02:33:50;1.88;;;1.45;;
20468;SDS011;10393;52.460;13.322;2022-08-03T02:35:32;2.78;;;1.20;;
20468;SDS011;10393;52.460;13.322;2022-08-03T02:37:16;3.17;;;1.80;;
20468;SDS011;10393;52.460;13.322;2022-08-03T02:38:58;7.50;;;1.98;;
20468;SDS011;10393;52.460;13.322;2022-08-03T02:40:40;3.63;;;1.65;;
20468;SDS011;10393;52.460;13.322;2022-08-03T02:42:41;3.17;;;1.60;;
20468;SDS011;10393;52.460;13.322;2022-08-03T02:44:24;1.70;;;1.60;;
20468;SDS011;10393;52.460;13.322;2022-08-03T02:46:06;3.80;;;1.80;;
20468;SDS011;10393;52.460;13.322;2022-08-03T02:47:47;2.72;;;2.53;;
20468;SDS011;10393;52.460;13.322;2022-08-03T02:49:29;4.90;;;1.92;;
20468;SDS011;10393;52.460;13.322;2022-08-03T02:51:12;6.63;;;1.92;;
20468;SDS011;10393;52.460;13.322;2022-08-03T02:52:54;3.78;;;1.50;;
20468;SDS011;10393;52.460;13.322;2022-08-03T02:54:36;2.95;;;1.90;;
20468;SDS011;10393;52.460;13.322;2022-08-03T02:56:17;1.73;;;1.63;;
20468;SDS011;10393;52.460;13.322;2022-08-03T02:57:58;5.00;;;1.73;;
20468;SDS011;10393;52.460;13.322;2022-08-03T02:59:40;2.03;;;1.83;;
20468;SDS011;10393;52.460;13.322;2022-08-03T03:01:22;4.35;;;1.90;;
20468;SDS011;10393;52.460;13.322;2022-08-03T03:03:04;3.13;;;1.92;;
20468;SDS011;10393;52.460;13.322;2022-08-03T03:04:46;2.58;;;1.85;;
20468;SDS011;10393;52.460;13.322;2022-08-03T03:06:29;2.10;;;1.67;;
20468;SDS011;10393;52.460;13.322;2022-08-03T03:08:13;1.80;;;1.70;;
20468;SDS011;10393;52.460;13.322;2022-08-03T03:09:55;3.08;;;2.35;;
20468;SDS011;10393;52.460;13.322;2022-08-03T03:11:37;2.47;;;2.15;;
20468;SDS011;10393;52.460;13.322;2022-08-03T03:13:18;4.75;;;2.28;;
20468;SDS011;10393;52.460;13.322;2022-08-03T03:15:00;2.85;;;2.42;;
20468;SDS011;10393;52.460;13.322;2022-08-03T03:16:41;4.65;;;2.03;;
20468;SDS011;10393;52.460;13.322;2022-08-03T03:18:24;4.10;;;2.13;;
20468;SDS011;10393;52.460;13.322;2022-08-03T03:20:07;2.63;;;2.08;;
20468;SDS011;10393;52.460;13.322;2022-08-03T03:21:48;3.05;;;2.25;;
20468;SDS011;10393;52.460;13.322;2022-08-03T03:23:30;2.72;;;2.17;;
20468;SDS011;10393;52.460;13.322;2022-08-03T03:25:11;7.03;;;2.15;;
20468;SDS011;10393;52.460;13.322;2022-08-03T03:26:52;2.35;;;2.15;;
20468;SDS011;10393;52.460;13.322;2022-08-03T03:28:33;7.38;;;2.50;;
20468;SDS011;10393;52.460;13.322;2022-08-03T03:30:17;4.15;;;2.08;;
20468;SDS011;10393;52.460;13.322;2022-08-03T03:31:59;2.22;;;2.00;;
20468;SDS011;10393;52.460;13.322;2022-08-03T03:33:40;2.60;;;2.40;;
20468;SDS011;10393;52.460;13.322;2022-08-03T03:35:21;5.78;;;2.78;;
20468;SDS011;10393;52.460;13.322;2022-08-03T03:37:02;3.95;;;1.92;;
20468;SDS011;10393;52.460;13.322;2022-08-03T03:38:44;2.55;;;2.30;;
20468;SDS011;10393;52.460;13.322;2022-08-03T03:40:25;3.10;;;2.90;;
20468;SDS011;10393;52.460;13.322;2022-08-03T03:42:06;2.67;;;2.38;;
20468;SDS011;10393;52.460;13.322;2022-08-03T03:43:48;4.65;;;2.67;;
20468;SDS011;10393;52.460;13.322;2022-08-03T03:45:29;2.55;;;2.00;;
20468;SDS011;10393;52.460;13.322;2022-08-03T03:47:10;3.83;;;2.75;;
20468;SDS011;10393;52.460;13.322;2022-08-03T03:48:51;3.72;;;2.75;;
20468;SDS011;10393;52.460;13.322;2022-08-03T03:50:33;5.28;;;3.28;;
20468;SDS011;10393;52.460;13.322;2022-08-03T03:52:15;4.20;;;2.67;;
20468;SDS011;10393;52.460;13.322;2022-08-03T03:54:00;6.20;;;2.78;;
20468;SDS011;10393;52.460;13.322;2022-08-03T03:55:43;2.97;;;2.70;;
20468;SDS011;10393;52.460;13.322;2022-08-03T03:57:24;5.63;;;2.80;;
20468;SDS011;10393;52.460;13.322;2022-08-03T03:59:05;8.13;;;3.10;;
20468;SDS011;10393;52.460;13.322;2022-08-03T04:00:46;5.25;;;3.25;;
20468;SDS011;10393;52.460;13.322;2022-08-03T04:02:26;6.30;;;2.17;;
20468;SDS011;10393;52.460;13.322;2022-08-03T04:04:07;2.42;;;2.22;;
20468;SDS011;10393;52.460;13.322;2022-08-03T04:06:07;5.28;;;2.15;;
20468;SDS011;10393;52.460;13.322;2022-08-03T04:08:08;4.97;;;2.67;;
20468;SDS011;10393;52.460;13.322;2022-08-03T04:10:09;6.22;;;3.20;;
20468;SDS011;10393;52.460;13.322;2022-08-03T04:12:11;7.55;;;3.55;;
20468;SDS011;10393;52.460;13.322;2022-08-03T04:13:57;3.72;;;2.95;;
20468;SDS011;10393;52.460;13.322;2022-08-03T04:15:41;4.20;;;3.47;;
20468;SDS011;10393;52.460;13.322;2022-08-03T04:17:22;2.70;;;2.50;;
20468;SDS011;10393;52.460;13.322;2022-08-03T04:19:23;3.38;;;3.13;;
20468;SDS011;10393;52.460;13.322;2022-08-03T04:21:36;4.80;;;2.75;;
20468;SDS011;10393;52.460;13.322;2022-08-03T04:23:21;7.22;;;2.88;;
20468;SDS011;10393;52.460;13.322;2022-08-03T04:25:06;3.40;;;3.10;;
20468;SDS011;10393;52.460;13.322;2022-08-03T04:26:48;4.07;;;3.42;;
20468;SDS011;10393;52.460;13.322;2022-08-03T04:28:30;6.03;;;2.78;;
20468;SDS011;10393;52.460;13.322;2022-08-03T04:30:12;2.63;;;2.40;;
20468;SDS011;10393;52.460;13.322;2022-08-03T04:31:53;5.05;;;3.03;;
20468;SDS011;10393;52.460;13.322;2022-08-03T04:33:36;8.25;;;2.67;;
20468;SDS011;10393;52.460;13.322;2022-08-03T04:35:18;4.88;;;2.90;;
20468;SDS011;10393;52.460;13.322;2022-08-03T04:36:59;4.13;;;2.55;;
20468;SDS011;10393;52.460;13.322;2022-08-03T04:38:53;4.82;;;2.75;;
20468;SDS011;10393;52.460;13.322;2022-08-03T04:40:44;5.43;;;2.88;;
20468;SDS011;10393;52.460;13.322;2022-08-03T04:42:26;4.30;;;2.63;;
20468;SDS011;10393;52.460;13.322;2022-08-03T04:44:07;5.35;;;2.70;;
20468;SDS011;10393;52.460;13.322;2022-08-03T04:45:48;3.13;;;2.40;;
20468;SDS011;10393;52.460;13.322;2022-08-03T04:47:31;5.03;;;2.63;;
20468;SDS011;10393;52.460;13.322;2022-08-03T04:49:12;5.63;;;3.45;;
20468;SDS011;10393;52.460;13.322;2022-08-03T04:50:53;7.38;;;3.33;;
20468;SDS011;10393;52.460;13.322;2022-08-03T04:52:34;10.57;;;3.83;;
20468;SDS011;10393;52.460;13.322;2022-08-03T04:54:15;5.00;;;3.15;;
20468;SDS011;10393;52.460;13.322;2022-08-03T04:56:02;9.57;;;3.30;;
20468;SDS011;10393;52.460;13.322;2022-08-03T04:57:44;4.68;;;2.50;;
20468;SDS011;10393;52.460;13.322;2022-08-03T04:59:25;4.50;;;2.80;;
20468;SDS011;10393;52.460;13.322;2022-08-03T05:01:05;7.10;;;3.10;;
20468;SDS011;10393;52.460;13.322;2022-08-03T05:02:46;2.65;;;2.47;;
20468;SDS011;10393;52.460;13.322;2022-08-03T05:04:27;4.90;;;2.70;;
20468;SDS011;10393;52.460;13.322;2022-08-03T05:06:08;7.38;;;3.00;;
20468;SDS011;10393;52.460;13.322;2022-08-03T05:07:49;24.98;;;4.75;;
20468;SDS011;10393;52.460;13.322;2022-08-03T05:09:30;11.05;;;3.80;;
20468;SDS011;10393;52.460;13.322;2022-08-03T05:11:11;2.97;;;2.47;;
20468;SDS011;10393;52.460;13.322;2022-08-03T05:12:51;7.30;;;3.22;;
20468;SDS011;10393;52.460;13.322;2022-08-03T05:14:33;4.07;;;2.72;;
20468;SDS011;10393;52.460;13.322;2022-08-03T05:16:16;4.65;;;2.65;;
20468;SDS011;10393;52.460;13.322;2022-08-03T05:17:57;2.40;;;2.20;;
20468;SDS011;10393;52.460;13.322;2022-08-03T05:19:37;5.47;;;2.88;;
20468;SDS011;10393;52.460;13.322;2022-08-03T05:21:18;4.68;;;3.00;;
20468;SDS011;10393;52.460;13.322;2022-08-03T05:22:59;3.72;;;3.08;;
20468;SDS011;10393;52.460;13.322;2022-08-03T05:24:41;4.95;;;2.03;;
20468;SDS011;10393;52.460;13.322;2022-08-03T05:26:21;6.13;;;2.38;;
20468;SDS011;10393;52.460;13.322;2022-08-03T05:28:02;6.28;;;2.20;;
20468;SDS011;10393;52.460;13.322;2022-08-03T05:29:44;8.70;;;2.15;;
20468;SDS011;10393;52.460;13.322;2022-08-03T05:31:25;2.65;;;2.05;;
20468;SDS011;10393;52.460;13.322;2022-08-03T05:33:06;2.80;;;1.88;;
20468;SDS011;10393;52.460;13.322;2022-08-03T05:34:47;3.53;;;2.03;;
20468;SDS011;10393;52.460;13.322;2022-08-03T05:36:28;3.70;;;1.75;;
20468;SDS011;10393;52.460;13.322;2022-08-03T05:38:08;2.70;;;1.88;;
20468;SDS011;10393;52.460;13.322;2022-08-03T05:39:49;3.83;;;1.70;;
20468;SDS011;10393;52.460;13.322;2022-08-03T05:41:30;9.15;;;2.38;;
20468;SDS011;10393;52.460;13.322;2022-08-03T05:43:11;3.38;;;1.65;;
20468;SDS011;10393;52.460;13.322;2022-08-03T05:44:52;4.68;;;1.50;;
20468;SDS011;10393;52.460;13.322;2022-08-03T05:46:32;6.00;;;1.90;;
20468;SDS011;10393;52.460;13.322;2022-08-03T05:48:13;5.63;;;2.35;;
20468;SDS011;10393;52.460;13.322;2022-08-03T05:49:54;3.85;;;2.13;;
20468;SDS011;10393;52.460;13.322;2022-08-03T05:51:35;5.47;;;1.60;;
20468;SDS011;10393;52.460;13.322;2022-08-03T05:53:16;2.05;;;1.67;;
20468;SDS011;10393;52.460;13.322;2022-08-03T05:54:57;3.53;;;1.50;;
20468;SDS011;10393;52.460;13.322;2022-08-03T05:56:38;3.45;;;2.00;;
20468;SDS011;10393;52.460;13.322;2022-08-03T05:58:22;4.53;;;1.65;;
20468;SDS011;10393;52.460;13.322;2022-08-03T06:00:03;10.55;;;1.60;;
20468;SDS011;10393;52.460;13.322;2022-08-03T06:01:51;2.40;;;1.42;;
20468;SDS011;10393;52.460;13.322;2022-08-03T06:03:32;2.03;;;1.65;;
20468;SDS011;10393;52.460;13.322;2022-08-03T06:05:13;1.60;;;1.42;;
20468;SDS011;10393;52.460;13.322;2022-08-03T06:06:54;1.83;;;1.40;;
20468;SDS011;10393;52.460;13.322;2022-08-03T06:08:34;4.72;;;1.83;;
20468;SDS011;10393;52.460;13.322;2022-08-03T06:10:16;2.88;;;1.52;;
20468;SDS011;10393;52.460;13.322;2022-08-03T06:11:57;4.68;;;2.67;;
20468;SDS011;10393;52.460;13.322;2022-08-03T06:13:37;1.88;;;1.40;;
20468;SDS011;10393;52.460;13.322;2022-08-03T06:15:18;7.63;;;1.90;;
20468;SDS011;10393;52.460;13.322;2022-08-03T06:16:59;7.68;;;1.70;;
20468;SDS011;10393;52.460;13.322;2022-08-03T06:18:40;7.57;;;1.60;;
20468;SDS011;10393;52.460;13.322;2022-08-03T06:20:21;3.63;;;1.30;;
20468;SDS011;10393;52.460;13.322;2022-08-03T06:22:05;3.00;;;1.45;;
20468;SDS011;10393;52.460;13.322;2022-08-03T06:23:46;3.45;;;1.30;;
20468;SDS011;10393;52.460;13.322;2022-08-03T06:25:26;3.90;;;1.27;;
20468;SDS011;10393;52.460;13.322;2022-08-03T06:27:08;8.38;;;1.60;;
20468;SDS011;10393;52.460;13.322;2022-08-03T06:28:48;8.05;;;1.70;;
20468;SDS011;10393;52.460;13.322;2022-08-03T06:30:29;2.85;;;1.65;;
20468;SDS011;10393;52.460;13.322;2022-08-03T06:32:11;2.75;;;1.65;;
20468;SDS011;10393;52.460;13.322;2022-08-03T06:33:52;4.90;;;1.75;;
20468;SDS011;10393;52.460;13.322;2022-08-03T06:35:33;10.10;;;1.52;;
20468;SDS011;10393;52.460;13.322;2022-08-03T06:37:14;6.15;;;1.55;;
20468;SDS011;10393;52.460;13.322;2022-08-03T06:38:56;3.53;;;1.20;;
20468;SDS011;10393;52.460;13.322;2022-08-03T06:40:38;1.33;;;1.10;;
20468;SDS011;10393;52.460;13.322;2022-08-03T06:42:20;5.72;;;2.03;;
20468;SDS011;10393;52.460;13.322;2022-08-03T06:44:01;2.75;;;1.50;;
20468;SDS011;10393;52.460;13.322;2022-08-03T06:45:42;1.63;;;1.52;;
20468;SDS011;10393;52.460;13.322;2022-08-03T06:47:24;2.80;;;1.20;;
20468;SDS011;10393;52.460;13.322;2022-08-03T06:49:05;3.55;;;1.58;;
20468;SDS011;10393;52.460;13.322;2022-08-03T06:50:47;3.10;;;1.60;;
20468;SDS011;10393;52.460;13.322;2022-08-03T06:52:28;3.40;;;1.10;;
20468;SDS011;10393;52.460;13.322;2022-08-03T06:54:10;1.98;;;1.10;;
20468;SDS011;10393;52.460;13.322;2022-08-03T06:55:51;5.45;;;1.63;;
20468;SDS011;10393;52.460;13.322;2022-08-03T06:57:33;6.90;;;1.63;;
20468;SDS011;10393;52.460;13.322;2022-08-03T06:59:14;2.13;;;1.38;;
20468;SDS011;10393;52.460;13.322;2022-08-03T07:00:55;1.42;;;1.33;;
20468;SDS011;10393;52.460;13.322;2022-08-03T07:02:37;1.60;;;1.50;;
20468;SDS011;10393;52.460;13.322;2022-08-03T07:04:18;1.63;;;1.50;;
20468;SDS011;10393;52.460;13.322;2022-08-03T07:06:00;2.63;;;1.60;;
20468;SDS011;10393;52.460;13.322;2022-08-03T07:07:41;2.97;;;1.80;;
20468;SDS011;10393;52.460;13.322;2022-08-03T07:09:22;2.00;;;1.90;;
20468;SDS011;10393;52.460;13.322;2022-08-03T07:11:05;3.28;;;2.03;;
20468;SDS011;10393;52.460;13.322;2022-08-03T07:12:47;3.72;;;1.90;;
20468;SDS011;10393;52.460;13.322;2022-08-03T07:14:28;9.02;;;3.35;;
20468;SDS011;10393;52.460;13.322;2022-08-03T07:16:09;12.68;;;11.38;;
20468;SDS011;10393;52.460;13.322;2022-08-03T07:17:51;32.50;;;29.65;;
20468;SDS011;10393;52.460;13.322;2022-08-03T07:19:32;9.63;;;8.85;;
20468;SDS011;10393;52.460;13.322;2022-08-03T07:21:13;3.60;;;3.30;;
20468;SDS011;10393;52.460;13.322;2022-08-03T07:22:56;5.47;;;3.00;;
20468;SDS011;10393;52.460;13.322;2022-08-03T07:24:37;3.47;;;3.30;;
20468;SDS011;10393;52.460;13.322;2022-08-03T07:26:20;3.83;;;3.63;;
20468;SDS011;10393;52.460;13.322;2022-08-03T07:28:02;5.15;;;4.00;;
20468;SDS011;10393;52.460;13.322;2022-08-03T07:29:43;5.15;;;4.65;;
20468;SDS011;10393;52.460;13.322;2022-08-03T07:31:24;4.22;;;4.10;;
20468;SDS011;10393;52.460;13.322;2022-08-03T07:33:06;7.40;;;4.70;;
20468;SDS011;10393;52.460;13.322;2022-08-03T07:34:47;5.38;;;5.07;;
20468;SDS011;10393;52.460;13.322;2022-08-03T07:36:28;5.45;;;5.28;;
20468;SDS011;10393;52.460;13.322;2022-08-03T07:38:11;5.78;;;5.53;;
20468;SDS011;10393;52.460;13.322;2022-08-03T07:39:52;7.10;;;6.80;;
20468;SDS011;10393;52.460;13.322;2022-08-03T07:41:33;7.07;;;6.88;;
20468;SDS011;10393;52.460;13.322;2022-08-03T07:43:14;7.35;;;7.15;;
20468;SDS011;10393;52.460;13.322;2022-08-03T07:44:56;8.32;;;7.80;;
20468;SDS011;10393;52.460;13.322;2022-08-03T07:46:41;8.38;;;8.18;;
20468;SDS011;10393;52.460;13.322;2022-08-03T07:48:22;9.55;;;9.05;;
20468;SDS011;10393;52.460;13.322;2022-08-03T07:50:04;9.50;;;9.10;;
20468;SDS011;10393;52.460;13.322;2022-08-03T07:51:45;9.95;;;9.55;;
20468;SDS011;10393;52.460;13.322;2022-08-03T07:53:47;10.65;;;10.20;;
20468;SDS011;10393;52.460;13.322;2022-08-03T07:55:29;12.38;;;11.70;;
20468;SDS011;10393;52.460;13.322;2022-08-03T07:57:10;14.30;;;13.82;;
20468;SDS011;10393;52.460;13.322;2022-08-03T07:58:51;14.80;;;14.35;;
20468;SDS011;10393;52.460;13.322;2022-08-03T08:00:33;15.00;;;14.50;;
20468;SDS011;10393;52.460;13.322;2022-08-03T08:02:14;16.45;;;15.80;;
20468;SDS011;10393;52.460;13.322;2022-08-03T08:03:55;17.45;;;16.63;;
20468;SDS011;10393;52.460;13.322;2022-08-03T08:05:36;19.02;;;17.90;;
20468;SDS011;10393;52.460;13.322;2022-08-03T08:07:17;18.80;;;18.10;;
20468;SDS011;10393;52.460;13.322;2022-08-03T08:08:59;20.40;;;19.70;;
20468;SDS011;10393;52.460;13.322;2022-08-03T08:10:41;22.50;;;21.42;;
20468;SDS011;10393;52.460;13.322;2022-08-03T08:12:22;30.70;;;29.20;;
20468;SDS011;10393;52.460;13.322;2022-08-03T08:14:04;42.33;;;39.97;;
20468;SDS011;10393;52.460;13.322;2022-08-03T08:15:46;23.52;;;22.45;;
20468;SDS011;10393;52.460;13.322;2022-08-03T08:17:27;20.50;;;19.50;;
20468;SDS011;10393;52.460;13.322;2022-08-03T08:19:08;18.30;;;17.55;;
20468;SDS011;10393;52.460;13.322;2022-08-03T08:20:50;17.27;;;16.50;;
20468;SDS011;10393;52.460;13.322;2022-08-03T08:22:31;15.93;;;15.32;;
20468;SDS011;10393;52.460;13.322;2022-08-03T08:24:12;16.35;;;15.75;;
20468;SDS011;10393;52.460;13.322;2022-08-03T08:25:53;14.93;;;14.32;;
20468;SDS011;10393;52.460;13.322;2022-08-03T08:27:41;10.68;;;10.40;;
20468;SDS011;10393;52.460;13.322;2022-08-03T08:29:23;4.82;;;4.60;;
20468;SDS011;10393;52.460;13.322;2022-08-03T08:31:04;2.20;;;2.00;;
20468;SDS011;10393;52.460;13.322;2022-08-03T08:32:46;3.25;;;1.42;;
20468;SDS011;10393;52.460;13.322;2022-08-03T08:34:27;1.17;;;1.15;;
20468;SDS011;10393;52.460;13.322;2022-08-03T08:36:08;1.42;;;1.10;;
20468;SDS011;10393;52.460;13.322;2022-08-03T08:37:50;1.90;;;1.20;;
20468;SDS011;10393;52.460;13.322;2022-08-03T08:39:31;2.35;;;1.10;;
20468;SDS011;10393;52.460;13.322;2022-08-03T08:41:13;2.30;;;1.30;;
20468;SDS011;10393;52.460;13.322;2022-08-03T08:42:54;2.67;;;1.05;;
20468;SDS011;10393;52.460;13.322;2022-08-03T08:44:35;1.73;;;1.20;;
20468;SDS011;10393;52.460;13.322;2022-08-03T08:46:17;2.08;;;1.10;;
20468;SDS011;10393;52.460;13.322;2022-08-03T08:47:59;1.45;;;1.02;;
20468;SDS011;10393;52.460;13.322;2022-08-03T08:49:42;3.67;;;1.38;;
20468;SDS011;10393;52.460;13.322;2022-08-03T08:51:26;2.97;;;1.20;;
20468;SDS011;10393;52.460;13.322;2022-08-03T08:53:08;1.92;;;1.10;;
20468;SDS011;10393;52.460;13.322;2022-08-03T08:54:51;2.00;;;1.00;;
20468;SDS011;10393;52.460;13.322;2022-08-03T08:56:32;2.60;;;1.45;;
20468;SDS011;10393;52.460;13.322;2022-08-03T08:58:14;2.25;;;1.30;;
20468;SDS011;10393;52.460;13.322;2022-08-03T08:59:56;3.75;;;1.40;;
20468;SDS011;10393;52.460;13.322;2022-08-03T09:01:38;15.13;;;1.63;;
20468;SDS011;10393;52.460;13.322;2022-08-03T09:03:19;3.88;;;1.40;;
20468;SDS011;10393;52.460;13.322;2022-08-03T09:05:00;2.35;;;1.70;;
20468;SDS011;10393;52.460;13.322;2022-08-03T09:06:41;2.85;;;1.10;;
20468;SDS011;10393;52.460;13.322;2022-08-03T09:08:22;1.63;;;1.30;;
20468;SDS011;10393;52.460;13.322;2022-08-03T09:10:04;1.98;;;1.40;;
20468;SDS011;10393;52.460;13.322;2022-08-03T09:11:47;6.13;;;1.15;;
20468;SDS011;10393;52.460;13.322;2022-08-03T09:13:28;1.98;;;1.30;;
20468;SDS011;10393;52.460;13.322;2022-08-03T09:16:57;2.30;;;1.30;;
20468;SDS011;10393;52.460;13.322;2022-08-03T09:18:44;2.25;;;1.98;;
20468;SDS011;10393;52.460;13.322;2022-08-03T09:20:28;3.33;;;1.50;;
20468;SDS011;10393;52.460;13.322;2022-08-03T09:23:56;2.25;;;1.33;;
20468;SDS011;10393;52.460;13.322;2022-08-03T09:25:38;2.88;;;1.10;;
20468;SDS011;10393;52.460;13.322;2022-08-03T09:27:20;1.42;;;1.33;;
20468;SDS011;10393;52.460;13.322;2022-08-03T09:30:44;4.55;;;1.48;;
20468;SDS011;10393;52.460;13.322;2022-08-03T09:32:37;2.53;;;1.20;;
20468;SDS011;10393;52.460;13.322;2022-08-03T09:34:17;1.15;;;1.10;;
20468;SDS011;10393;52.460;13.322;2022-08-03T09:36:04;1.38;;;1.27;;
20468;SDS011;10393;52.460;13.322;2022-08-03T09:37:45;1.30;;;1.20;;
20468;SDS011;10393;52.460;13.322;2022-08-03T09:39:50;2.05;;;1.30;;
20468;SDS011;10393;52.460;13.322;2022-08-03T09:41:31;1.50;;;1.40;;
20468;SDS011;10393;52.460;13.322;2022-08-03T09:43:12;1.77;;;1.60;;
20468;SDS011;10393;52.460;13.322;2022-08-03T09:44:53;1.48;;;1.30;;
20468;SDS011;10393;52.460;13.322;2022-08-03T09:46:50;1.33;;;1.25;;
20468;SDS011;10393;52.460;13.322;2022-08-03T09:48:32;2.40;;;1.33;;
20468;SDS011;10393;52.460;13.322;2022-08-03T09:50:14;1.02;;;1.02;;
20468;SDS011;10393;52.460;13.322;2022-08-03T09:51:55;4.95;;;1.25;;
20468;SDS011;10393;52.460;13.322;2022-08-03T09:53:42;2.85;;;1.10;;
20468;SDS011;10393;52.460;13.322;2022-08-03T09:55:24;1.17;;;1.08;;
20468;SDS011;10393;52.460;13.322;2022-08-03T09:57:04;1.60;;;1.15;;
20468;SDS011;10393;52.460;13.322;2022-08-03T09:58:45;3.97;;;1.00;;
20468;SDS011;10393;52.460;13.322;2022-08-03T10:00:26;2.05;;;1.00;;
20468;SDS011;10393;52.460;13.322;2022-08-03T10:02:08;1.50;;;1.30;;
20468;SDS011;10393;52.460;13.322;2022-08-03T10:04:03;3.30;;;1.17;;
20468;SDS011;10393;52.460;13.322;2022-08-03T10:05:44;1.52;;;1.40;;
20468;SDS011;10393;52.460;13.322;2022-08-03T10:07:25;1.63;;;1.17;;
20468;SDS011;10393;52.460;13.322;2022-08-03T10:09:12;1.33;;;1.08;;
20468;SDS011;10393;52.460;13.322;2022-08-03T10:10:55;1.48;;;1.10;;
20468;SDS011;10393;52.460;13.322;2022-08-03T10:12:37;1.20;;;1.10;;
20468;SDS011;10393;52.460;13.322;2022-08-03T10:14:20;2.10;;;1.35;;
20468;SDS011;10393;52.460;13.322;2022-08-03T10:16:02;3.63;;;1.17;;
20468;SDS011;10393;52.460;13.322;2022-08-03T10:17:45;25.60;;;16.50;;
20468;SDS011;10393;52.460;13.322;2022-08-03T10:19:25;38.78;;;26.02;;
20468;SDS011;10393;52.460;13.322;2022-08-03T10:21:07;1.50;;;1.40;;
20468;SDS011;10393;52.460;13.322;2022-08-03T10:22:50;9.07;;;1.25;;
20468;SDS011;10393;52.460;13.322;2022-08-03T10:24:33;1.30;;;1.20;;
20468;SDS011;10393;52.460;13.322;2022-08-03T10:26:15;2.85;;;1.30;;